Back to Top

Language: 

My Weather Underground Personal Weather Station Historical Data with Graphs...

Delerius Weather Station Historical Data
Daily Summary for October 20, 2017 Units:  Metric    English   Both
« Previous Day
Next Day »
Daily Weekly Monthly Yearly Custom
  High: Low: Average:
Temperature: 15.6 °C 9.3 °C 12.2 °C
Dew Point: 13.4 °C 7.7 °C 10.4 °C
Humidity: 98 % 79 % 90 %
Wind Speed: 20.9 km/h 0 km/h 8.5 km/h
Wind Gust: 41.8 km/h - -
Wind:- - SW
Pressure: 1005 hPa 994.1 hPa -
Precipitation: 1.02 mm    
Historical Graphs
 
 
Tabular Data for October 20, 2017
Time Temperature Dew Point Pressure Wind Wind Speed Wind Gust Humidity Rainfall Rate (Hourly) solar Conditions
00:04 13.2 °C 12.4 °C 994.8 hPa ESE 11.3 km/h 17.7 km/h 95 % 0 mm 0 W/m2
00:09 13.2 °C 12.4 °C 994.8 hPa ESE 11.3 km/h 19.3 km/h 95 % 0 mm 0 W/m2
00:14 13.2 °C 12.4 °C 994.8 hPa ESE 11.3 km/h 20.9 km/h 95 % 0 mm 0 W/m2
00:19 13.3 °C 12.5 °C 994.8 hPa ESE 11.3 km/h 20.9 km/h 95 % 0 mm 0 W/m2
00:24 13.3 °C 12.5 °C 994.8 hPa ESE 11.3 km/h 17.7 km/h 95 % 0 mm 0 W/m2
00:29 13.3 °C 12.5 °C 994.8 hPa ESE 11.3 km/h 20.9 km/h 95 % 0 mm 0 W/m2
00:34 13.3 °C 12.5 °C 994.8 hPa SE 11.3 km/h 20.9 km/h 95 % 0 mm 0 W/m2
00:39 13.3 °C 12.5 °C 994.8 hPa SE 11.3 km/h 20.9 km/h 95 % 0 mm 0 W/m2
00:44 13.3 °C 12.5 °C 994.5 hPa SE 11.3 km/h 20.9 km/h 95 % 0 mm 0 W/m2
00:49 13.3 °C 12.5 °C 994.5 hPa SE 14.5 km/h 30.6 km/h 95 % 0 mm 0 W/m2
00:54 13.4 °C 12.6 °C 994.5 hPa SE 19.3 km/h 30.6 km/h 95 % 0 mm 0 W/m2
00:59 13.4 °C 12.6 °C 994.5 hPa SE 19.3 km/h 29 km/h 95 % 0 mm 0 W/m2
01:04 13.3 °C 12.5 °C 994.5 hPa SE 16.1 km/h 29 km/h 95 % 0 mm 0 W/m2
01:09 13.3 °C 12.5 °C 994.5 hPa SE 14.5 km/h 24.1 km/h 95 % 0 mm 0 W/m2
01:14 13.3 °C 12.5 °C 994.5 hPa SE 14.5 km/h 25.7 km/h 95 % 0.25 mm 0 W/m2
01:19 13.3 °C 12.5 °C 994.5 hPa SE 16.1 km/h 25.7 km/h 95 % 0.25 mm 0 W/m2
01:24 13.3 °C 12.5 °C 994.5 hPa SE 14.5 km/h 22.5 km/h 95 % 0.25 mm 0 W/m2
01:29 13.3 °C 12.5 °C 994.5 hPa SE 12.9 km/h 22.5 km/h 95 % 0.25 mm 0 W/m2
01:34 13.3 °C 12.5 °C 994.5 hPa SSE 11.3 km/h 17.7 km/h 95 % 0.25 mm 0 W/m2
01:39 13.2 °C 12.4 °C 994.5 hPa SE 12.9 km/h 22.5 km/h 95 % 0.25 mm 0 W/m2
01:44 13.2 °C 12.4 °C 994.5 hPa SSE 12.9 km/h 22.5 km/h 95 % 0.25 mm 0 W/m2
01:49 13.2 °C 12.4 °C 994.5 hPa SSE 11.3 km/h 20.9 km/h 95 % 0.25 mm 0 W/m2
01:54 13.2 °C 12.3 °C 994.5 hPa SSE 9.7 km/h 17.7 km/h 94 % 0.25 mm 0 W/m2
02:04 13.1 °C 12.2 °C 994.5 hPa SSE 9.7 km/h 17.7 km/h 94 % 0.25 mm 0 W/m2
02:09 13.1 °C 12.2 °C 994.5 hPa SSE 9.7 km/h 14.5 km/h 94 % 0.25 mm 0 W/m2
02:19 13 °C 12.1 °C 994.1 hPa SSE 9.7 km/h 17.7 km/h 94 % 0 mm 0 W/m2
02:24 12.9 °C 11.9 °C 994.1 hPa SSE 8 km/h 17.7 km/h 94 % 0 mm 0 W/m2
02:29 12.9 °C 11.9 °C 994.1 hPa South 8 km/h 17.7 km/h 94 % 0 mm 0 W/m2
02:34 12.8 °C 11.7 °C 994.1 hPa SSE 8 km/h 14.5 km/h 93 % 0 mm 0 W/m2
02:39 12.7 °C 11.6 °C 994.1 hPa SSE 6.4 km/h 12.9 km/h 93 % 0 mm 0 W/m2
02:44 12.6 °C 11.5 °C 994.5 hPa SSE 6.4 km/h 11.3 km/h 93 % 0 mm 0 W/m2
02:49 12.5 °C 11.4 °C 994.5 hPa South 6.4 km/h 12.9 km/h 93 % 0 mm 0 W/m2
02:50 12.5 °C 11.4 °C 994.5 hPa South 6.4 km/h 12.9 km/h 93 % 0 mm 0 W/m2
02:55 12.4 °C 11.3 °C 994.1 hPa South 4.8 km/h 11.3 km/h 93 % 0 mm 0 W/m2
03:00 12.3 °C 11.2 °C 994.5 hPa SSE 4.8 km/h 9.7 km/h 93 % 0 mm 0 W/m2
03:05 12.3 °C 11.2 °C 994.1 hPa SE 3.2 km/h 11.3 km/h 93 % 0 mm 0 W/m2
03:10 12.3 °C 11.2 °C 994.1 hPa SSE 4.8 km/h 11.3 km/h 93 % 0 mm 0 W/m2
03:15 12.3 °C 11.2 °C 994.5 hPa SSE 4.8 km/h 11.3 km/h 93 % 0 mm 0 W/m2
03:20 12.3 °C 11.2 °C 994.5 hPa SSW 1.6 km/h 6.4 km/h 93 % 0 mm 0 W/m2
03:25 12.2 °C 11.3 °C 994.5 hPa SSW 1.6 km/h 6.4 km/h 94 % 0 mm 0 W/m2
03:30 12.2 °C 11.3 °C 994.5 hPa Calm   3.2 km/h 94 % 0 mm 0 W/m2
03:36 12.2 °C 11.3 °C 994.5 hPa Calm   1.6 km/h 94 % 0 mm 0 W/m2
03:38 12.2 °C 11.3 °C 994.8 hPa Calm   3.2 km/h 94 % 0 mm 0 W/m2
03:43 12.2 °C 11.3 °C 994.8 hPa SSW 4.8 km/h 20.9 km/h 94 % 0.25 mm 0 W/m2
03:48 12.1 °C 11.2 °C 994.8 hPa SSW 11.3 km/h 20.9 km/h 94 % 0.25 mm 0 W/m2
03:53 12 °C 11.1 °C 994.8 hPa SSW 9.7 km/h 17.7 km/h 94 % 0.51 mm 0 W/m2
03:58 11.9 °C 10.9 °C 994.8 hPa South 6.4 km/h 14.5 km/h 94 % 0.51 mm 0 W/m2
04:03 11.9 °C 10.9 °C 994.8 hPa SSW 3.2 km/h 11.3 km/h 94 % 0.51 mm 0 W/m2
04:08 11.8 °C 11 °C 994.8 hPa SW 1.6 km/h 9.7 km/h 95 % 0.51 mm 0 W/m2
04:13 11.8 °C 11 °C 994.8 hPa Calm   8 km/h 95 % 0.51 mm 0 W/m2
04:18 11.8 °C 11 °C 994.8 hPa Calm   3.2 km/h 95 % 0.51 mm 0 W/m2
04:22 11.8 °C 11 °C 994.8 hPa Calm   3.2 km/h 95 % 0.51 mm 0 W/m2
04:25 11.7 °C 10.9 °C 994.8 hPa Calm   6.4 km/h 95 % 0.51 mm 0 W/m2
04:30 11.7 °C 10.9 °C 994.8 hPa West 1.6 km/h 8 km/h 95 % 0.51 mm 0 W/m2
04:35 11.7 °C 10.9 °C 994.5 hPa West 1.6 km/h 8 km/h 95 % 0.51 mm 0 W/m2
04:40 11.6 °C 10.8 °C 994.8 hPa Calm   6.4 km/h 95 % 0.51 mm 0 W/m2
04:45 11.6 °C 10.8 °C 994.8 hPa Calm     95 % 0.51 mm 0 W/m2
04:50 11.6 °C 10.8 °C 994.8 hPa Calm   3.2 km/h 95 % 0.51 mm 0 W/m2
04:55 11.6 °C 10.8 °C 994.8 hPa Calm   3.2 km/h 95 % 0.25 mm 0 W/m2
05:00 11.5 °C 10.7 °C 994.8 hPa SW 1.6 km/h 6.4 km/h 95 % 0 mm 0 W/m2
05:05 11.4 °C 10.6 °C 994.8 hPa SW 1.6 km/h 6.4 km/h 95 % 0 mm 0 W/m2
05:10 11.3 °C 10.6 °C 994.8 hPa Calm   4.8 km/h 95 % 0 mm 0 W/m2
05:15 11.2 °C 10.4 °C 994.8 hPa Calm   4.8 km/h 95 % 0 mm 0 W/m2
05:20 11.1 °C 10.3 °C 995.1 hPa Calm     95 % 0 mm 0 W/m2
05:25 11.1 °C 10.3 °C 995.1 hPa Calm     95 % 0 mm 0 W/m2
05:35 10.9 °C 10.1 °C 995.1 hPa Calm     95 % 0 mm 0 W/m2
05:40 10.8 °C 10.1 °C 995.1 hPa Calm     95 % 0 mm 0 W/m2
05:45 10.7 °C 9.9 °C 995.1 hPa Calm     95 % 0 mm 0 W/m2
05:50 10.6 °C 9.8 °C 995.5 hPa Calm     95 % 0 mm 0 W/m2
05:55 10.6 °C 10 °C 995.5 hPa Calm     96 % 0 mm 0 W/m2
06:00 10.6 °C 10 °C 995.5 hPa Calm     96 % 0 mm 0 W/m2
06:05 10.6 °C 10 °C 995.5 hPa Calm     96 % 0 mm 0 W/m2
06:10 10.6 °C 10 °C 995.8 hPa Calm     96 % 0 mm 0 W/m2
06:12 10.6 °C 10 °C 995.8 hPa Calm     96 % 0 mm 0 W/m2
06:17 10.5 °C 9.9 °C 995.8 hPa Calm     96 % 0 mm 0 W/m2
06:22 10.4 °C 9.8 °C 995.8 hPa Calm     96 % 0 mm 0 W/m2
06:27 10.3 °C 9.7 °C 995.8 hPa Calm     96 % 0 mm 0 W/m2
06:32 10.2 °C 9.6 °C 996.2 hPa Calm     96 % 0 mm 0 W/m2
06:37 10.1 °C 9.5 °C 996.2 hPa Calm     96 % 0 mm 0 W/m2
06:42 10 °C 9.4 °C 996.2 hPa Calm     96 % 0 mm 0 W/m2
06:47 9.9 °C 9.3 °C 996.2 hPa Calm     96 % 0 mm 0 W/m2
06:52 9.9 °C 9.3 °C 996.2 hPa Calm     96 % 0 mm 0 W/m2
06:53 9.8 °C 9.2 °C 996.2 hPa Calm     96 % 0 mm 0 W/m2
06:58 9.7 °C 9.1 °C 996.5 hPa Calm   6.4 km/h 96 % 0 mm 0 W/m2
07:03 9.7 °C 9.1 °C 996.5 hPa West 1.6 km/h 6.4 km/h 96 % 0 mm 0 W/m2
07:08 9.7 °C 9.1 °C 996.5 hPa West 1.6 km/h 6.4 km/h 96 % 0 mm 0 W/m2
07:13 9.6 °C 9 °C 996.5 hPa Calm   6.4 km/h 96 % 0 mm 0 W/m2
07:18 9.5 °C 8.9 °C 996.8 hPa Calm   6.4 km/h 96 % 0 mm 0 W/m2
07:24 9.5 °C 8.9 °C 996.8 hPa WNW 1.6 km/h 8 km/h 96 % 0 mm 0 W/m2
07:29 9.5 °C 8.9 °C 996.8 hPa WNW 4.8 km/h 11.3 km/h 96 % 0 mm 0 W/m2
07:34 9.6 °C 9 °C 996.8 hPa WNW 4.8 km/h 11.3 km/h 96 % 0 mm 0 W/m2
07:39 9.6 °C 9 °C 996.8 hPa WNW 1.6 km/h 8 km/h 96 % 0 mm 0 W/m2
07:44 9.5 °C 8.9 °C 996.8 hPa Calm   6.4 km/h 96 % 0 mm 5 W/m2
07:49 9.4 °C 8.8 °C 996.8 hPa Calm   3.2 km/h 96 % 0 mm 7 W/m2
07:54 9.3 °C 8.7 °C 997.2 hPa WNW 1.6 km/h 8 km/h 96 % 0 mm 14 W/m2
07:59 9.3 °C 8.7 °C 997.5 hPa WNW 3.2 km/h 8 km/h 96 % 0 mm 28 W/m2
08:04 9.3 °C 8.7 °C 997.5 hPa WNW 3.2 km/h 8 km/h 96 % 0 mm 62 W/m2
08:09 9.4 °C 8.9 °C 997.5 hPa WNW 1.6 km/h 8 km/h 97 % 0 mm 104 W/m2
08:14 9.6 °C 9.2 °C 997.5 hPa Calm   3.2 km/h 97 % 0 mm 67 W/m2
08:19 9.8 °C 9.3 °C 997.9 hPa Calm   6.4 km/h 97 % 0 mm 46 W/m2
08:24 9.9 °C 9.4 °C 997.9 hPa Calm   6.4 km/h 97 % 0 mm 114 W/m2
08:29 10.1 °C 9.7 °C 997.9 hPa Calm   3.2 km/h 97 % 0 mm 100 W/m2
08:34 10.3 °C 9.8 °C 997.9 hPa Calm   3.2 km/h 97 % 0 mm 139 W/m2
08:35 10.4 °C 9.9 °C 997.9 hPa Calm   3.2 km/h 97 % 0 mm 144 W/m2
08:40 10.6 °C 10.2 °C 997.9 hPa Calm   1.6 km/h 97 % 0 mm 160 W/m2
08:45 10.9 °C 10.4 °C 997.9 hPa Calm     97 % 0 mm 188 W/m2
08:50 11.4 °C 11.1 °C 998.2 hPa Calm     98 % 0 mm 58 W/m2
08:55 11.6 °C 11.3 °C 998.2 hPa Calm   1.6 km/h 98 % 0 mm 174 W/m2
09:00 11.5 °C 11.1 °C 998.2 hPa Calm   1.6 km/h 97 % 0 mm 37 W/m2
09:05 11.3 °C 10.7 °C 998.5 hPa Calm     96 % 0 mm 44 W/m2
09:10 11.2 °C 10.6 °C 998.5 hPa Calm     96 % 0 mm 218 W/m2
09:15 11.2 °C 10.7 °C 998.5 hPa Calm   6.4 km/h 97 % 0 mm 229 W/m2
09:18 11.3 °C 10.8 °C 998.5 hPa WNW 1.6 km/h 8 km/h 97 % 0 mm 230 W/m2
09:23 11.6 °C 11.2 °C 998.9 hPa West 3.2 km/h 8 km/h 97 % 0 mm 295 W/m2
09:28 11.8 °C 11.3 °C 998.9 hPa West 4.8 km/h 16.1 km/h 97 % 0 mm 116 W/m2
09:33 12 °C 11.6 °C 998.9 hPa West 6.4 km/h 16.1 km/h 97 % 0 mm 102 W/m2
09:38 12.1 °C 11.6 °C 998.9 hPa West 8 km/h 20.9 km/h 97 % 0 mm 137 W/m2
09:43 12.2 °C 11.7 °C 999.2 hPa West 9.7 km/h 20.9 km/h 97 % 0 mm 113 W/m2
09:48 12.2 °C 11.7 °C 999.2 hPa West 9.7 km/h 17.7 km/h 97 % 0 mm 116 W/m2
09:53 12.3 °C 11.7 °C 999.2 hPa West 11.3 km/h 17.7 km/h 96 % 0 mm 105 W/m2
09:58 12.3 °C 11.7 °C 999.2 hPa West 11.3 km/h 19.3 km/h 96 % 0 mm 97 W/m2
10:03 12.4 °C 11.8 °C 999.2 hPa West 11.3 km/h 19.3 km/h 96 % 0 mm 90 W/m2
10:08 12.4 °C 11.8 °C 999.5 hPa West 9.7 km/h 16.1 km/h 96 % 0 mm 97 W/m2
10:13 12.4 °C 11.8 °C 999.5 hPa West 9.7 km/h 16.1 km/h 96 % 0 mm 97 W/m2
10:14 12.4 °C 11.8 °C 999.5 hPa West 9.7 km/h 14.5 km/h 96 % 0 mm 100 W/m2
10:19 12.4 °C 11.8 °C 999.5 hPa West 8 km/h 12.9 km/h 96 % 0 mm 121 W/m2
10:24 12.6 °C 12 °C 999.5 hPa West 8 km/h 16.1 km/h 96 % 0 mm 127 W/m2
10:29 12.7 °C 12.1 °C 999.5 hPa West 8 km/h 16.1 km/h 96 % 0 mm 113 W/m2
10:34 12.7 °C 11.9 °C 999.5 hPa West 6.4 km/h 12.9 km/h 95 % 0 mm 139 W/m2
10:39 12.8 °C 12 °C 999.9 hPa West 3.2 km/h 12.9 km/h 95 % 0 mm 134 W/m2
10:44 12.9 °C 12.1 °C 999.9 hPa West 3.2 km/h 11.3 km/h 95 % 0 mm 72 W/m2
10:49 13.1 °C 12.3 °C 999.9 hPa WNW 8 km/h 22.5 km/h 95 % 0 mm 53 W/m2
10:54 13.2 °C 12.4 °C 1000.2 hPa WNW 12.9 km/h 25.7 km/h 95 % 0 mm 62 W/m2
10:59 13.3 °C 12.3 °C 1000.2 hPa WNW 12.9 km/h 25.7 km/h 94 % 0 mm 79 W/m2
11:04 13.4 °C 12.4 °C 1000.2 hPa West 12.9 km/h 30.6 km/h 94 % 0 mm 127 W/m2
11:09 13.5 °C 12.6 °C 1000.2 hPa West 11.3 km/h 30.6 km/h 94 % 0 mm 195 W/m2
11:14 13.8 °C 12.8 °C 1000.2 hPa West 9.7 km/h 19.3 km/h 94 % 0 mm 301 W/m2
11:20 14.1 °C 13.2 °C 1000.2 hPa West 12.9 km/h 20.9 km/h 94 % 0 mm 185 W/m2
11:25 14.3 °C 13.2 °C 1000.6 hPa West 12.9 km/h 29 km/h 93 % 0 mm 257 W/m2
11:30 14.4 °C 13.1 °C 1000.6 hPa West 16.1 km/h 29 km/h 92 % 0 mm 417 W/m2
11:35 14.7 °C 13.2 °C 1000.6 hPa West 17.7 km/h 32.2 km/h 91 % 0 mm 229 W/m2
11:40 15 °C 13.4 °C 1000.6 hPa West 17.7 km/h 32.2 km/h 90 % 0 mm 478 W/m2
11:45 15.2 °C 13.2 °C 1000.6 hPa West 19.3 km/h 33.8 km/h 88 % 0 mm 476 W/m2
11:50 15.4 °C 13.2 °C 1000.9 hPa West 19.3 km/h 33.8 km/h 87 % 0 mm 221 W/m2
11:55 15.6 °C 13.3 °C 1000.9 hPa West 19.3 km/h 41.8 km/h 86 % 0 mm 258 W/m2
12:00 15.6 °C 13.3 °C 1001.2 hPa West 20.9 km/h 41.8 km/h 86 % 0 mm 211 W/m2
12:05 15.5 °C 13.2 °C 1000.9 hPa WNW 19.3 km/h 35.4 km/h 86 % 0 mm 221 W/m2
12:10 15.5 °C 13.3 °C 1001.2 hPa West 14.5 km/h 25.7 km/h 87 % 0 mm 246 W/m2
12:15 15.5 °C 13.3 °C 1001.2 hPa West 12.9 km/h 20.9 km/h 87 % 0 mm 105 W/m2
12:20 15.4 °C 13.2 °C 1001.6 hPa West 11.3 km/h 20.9 km/h 87 % 0 mm 86 W/m2
12:25 15.3 °C 13.2 °C 1001.6 hPa West 11.3 km/h 25.7 km/h 87 % 0 mm 269 W/m2
12:30 15.3 °C 13.2 °C 1001.6 hPa WNW 16.1 km/h 35.4 km/h 87 % 0 mm 589 W/m2
12:35 15.2 °C 13.2 °C 1001.9 hPa WNW 17.7 km/h 35.4 km/h 88 % 0 mm 148 W/m2
12:40 15 °C 13 °C 1001.6 hPa WNW 16.1 km/h 33.8 km/h 88 % 0 mm 153 W/m2
12:45 14.8 °C 12.8 °C 1001.9 hPa WNW 16.1 km/h 30.6 km/h 88 % 0 mm 114 W/m2
12:50 14.7 °C 12.6 °C 1001.9 hPa WNW 17.7 km/h 33.8 km/h 87 % 0 mm 148 W/m2
12:55 14.8 °C 12.8 °C 1001.9 hPa West 16.1 km/h 33.8 km/h 88 % 0 mm 204 W/m2
13:00 14.9 °C 12.8 °C 1001.9 hPa West 16.1 km/h 30.6 km/h 87 % 0 mm 339 W/m2
13:05 15.2 °C 13.1 °C 1001.9 hPa West 16.1 km/h 30.6 km/h 87 % 0 mm 308 W/m2
13:10 15.2 °C 12.7 °C 1002.3 hPa West 16.1 km/h 35.4 km/h 85 % 0 mm 179 W/m2
13:15 15.1 °C 12.8 °C 1002.3 hPa West 17.7 km/h 35.4 km/h 86 % 0 mm 141 W/m2
13:20 15 °C 12.7 °C 1002.3 hPa West 19.3 km/h 35.4 km/h 86 % 0 mm 336 W/m2
13:25 14.9 °C 12.6 °C 1002.3 hPa WNW 19.3 km/h 35.4 km/h 86 % 0 mm 151 W/m2
13:27 14.8 °C 12.5 °C 1002.3 hPa WNW 19.3 km/h 33.8 km/h 86 % 0 mm 239 W/m2
13:33 14.8 °C 12.7 °C 1002.3 hPa WNW 19.3 km/h 35.4 km/h 87 % 0 mm 540 W/m2
13:38 14.9 °C 12.6 °C 1002.3 hPa WNW 17.7 km/h 35.4 km/h 86 % 0 mm 158 W/m2
13:43 14.9 °C 12.6 °C 1002.3 hPa WNW 17.7 km/h 32.2 km/h 86 % 0 mm 269 W/m2
13:48 15.1 °C 12.6 °C 1002.3 hPa WNW 17.7 km/h 32.2 km/h 85 % 0 mm 585 W/m2
13:53 15.4 °C 12.7 °C 1002.3 hPa WNW 17.7 km/h 30.6 km/h 84 % 0 mm 485 W/m2
13:58 15.4 °C 12.5 °C 1002.6 hPa WNW 16.1 km/h 32.2 km/h 83 % 0 mm 95 W/m2
14:03 15.2 °C 12.2 °C 1002.6 hPa WNW 16.1 km/h 32.2 km/h 82 % 0 mm 109 W/m2
14:08 14.9 °C 12.1 °C 1002.9 hPa WNW 16.1 km/h 30.6 km/h 83 % 0 mm 278 W/m2
14:13 14.9 °C 12.2 °C 1002.9 hPa West 14.5 km/h 30.6 km/h 84 % 0 mm 127 W/m2
14:18 14.8 °C 12.1 °C 1002.9 hPa West 12.9 km/h 22.5 km/h 84 % 0 mm 70 W/m2
14:20 14.7 °C 12 °C 1002.9 hPa West 12.9 km/h 22.5 km/h 84 % 0 mm 97 W/m2
14:25 14.5 °C 11.7 °C 1002.9 hPa West 17.7 km/h 32.2 km/h 83 % 0 mm 84 W/m2
14:30 14.3 °C 11.6 °C 1002.9 hPa West 19.3 km/h 32.2 km/h 84 % 0 mm 63 W/m2
14:35 14.1 °C 11.4 °C 1003.3 hPa WNW 17.7 km/h 30.6 km/h 84 % 0 mm 42 W/m2
14:40 14 °C 11.5 °C 1003.3 hPa West 14.5 km/h 24.1 km/h 85 % 0 mm 49 W/m2
14:45 13.9 °C 11.6 °C 1003.3 hPa West 14.5 km/h 22.5 km/h 86 % 0 mm 169 W/m2
14:50 13.9 °C 11.6 °C 1003.3 hPa West 14.5 km/h 25.7 km/h 86 % 0 mm 70 W/m2
14:55 13.8 °C 11.5 °C 1003.3 hPa West 17.7 km/h 40.2 km/h 86 % 0 mm 53 W/m2
15:00 13.6 °C 11.1 °C 1003.3 hPa West 20.9 km/h 40.2 km/h 85 % 0 mm 74 W/m2
15:05 13.4 °C 11.1 °C 1003.6 hPa West 19.3 km/h 37 km/h 86 % 0 mm 76 W/m2
15:15 13.2 °C 10.9 °C 1003.6 hPa West 19.3 km/h 38.6 km/h 86 % 0 mm 130 W/m2
15:21 13.1 °C 10.8 °C 1003.6 hPa West 19.3 km/h 35.4 km/h 86 % 0 mm 88 W/m2
15:26 13.1 °C 10.8 °C 1003.9 hPa West 17.7 km/h 32.2 km/h 86 % 0 mm 155 W/m2
15:31 13.1 °C 10.6 °C 1003.9 hPa West 16.1 km/h 29 km/h 85 % 0 mm 88 W/m2
15:36 13.1 °C 10.6 °C 1003.9 hPa West 16.1 km/h 29 km/h 85 % 0 mm 79 W/m2
15:41 13.1 °C 10.6 °C 1003.9 hPa West 16.1 km/h 29 km/h 85 % 0 mm 95 W/m2
15:46 13.1 °C 10.4 °C 1003.9 hPa West 17.7 km/h 29 km/h 84 % 0 mm 104 W/m2
15:51 13.1 °C 10.6 °C 1003.9 hPa West 16.1 km/h 29 km/h 85 % 0 mm 88 W/m2
15:56 13.2 °C 10.7 °C 1003.9 hPa West 14.5 km/h 25.7 km/h 85 % 0 mm 160 W/m2
16:01 13.4 °C 10.8 °C 1003.9 hPa West 14.5 km/h 25.7 km/h 84 % 0 mm 250 W/m2
16:06 13.6 °C 10.8 °C 1003.9 hPa West 12.9 km/h 22.5 km/h 83 % 0 mm 134 W/m2
16:11 13.6 °C 10.6 °C 1003.9 hPa West 11.3 km/h 19.3 km/h 82 % 0 mm 183 W/m2
16:16 13.6 °C 10.6 °C 1003.9 hPa West 11.3 km/h 24.1 km/h 82 % 0 mm 148 W/m2
16:21 13.4 °C 10.4 °C 1003.9 hPa West 11.3 km/h 24.1 km/h 82 % 0 mm 76 W/m2
16:26 13.3 °C 10.3 °C 1003.9 hPa West 11.3 km/h 22.5 km/h 82 % 0 mm 53 W/m2
16:31 13.2 °C 10.2 °C 1003.9 hPa West 9.7 km/h 22.5 km/h 82 % 0 mm 42 W/m2
16:32 13.2 °C 10.2 °C 1003.9 hPa WSW 9.7 km/h 17.7 km/h 82 % 0 mm 35 W/m2
16:37 13.1 °C 10.1 °C 1003.9 hPa WSW 8 km/h 14.5 km/h 82 % 0 mm 30 W/m2
16:42 12.9 °C 10.1 °C 1003.9 hPa WSW 9.7 km/h 19.3 km/h 83 % 0 mm 26 W/m2
16:47 12.9 °C 10.1 °C 1003.9 hPa WSW 9.7 km/h 19.3 km/h 83 % 0 mm 32 W/m2
16:53 12.8 °C 10 °C 1003.9 hPa WSW 6.4 km/h 14.5 km/h 83 % 0 mm 23 W/m2
16:58 12.8 °C 10.2 °C 1004.3 hPa WSW 8 km/h 14.5 km/h 84 % 0 mm 28 W/m2
17:03 12.8 °C 10.2 °C 1004.3 hPa WSW 6.4 km/h 14.5 km/h 84 % 0 mm 33 W/m2
17:08 12.8 °C 10.2 °C 1004.3 hPa WSW 6.4 km/h 14.5 km/h 84 % 0 mm 35 W/m2
17:18 12.7 °C 10.1 °C 1004.3 hPa WSW 8 km/h 14.5 km/h 84 % 0 mm 23 W/m2
17:23 12.7 °C 10.2 °C 1004.3 hPa WSW 6.4 km/h 14.5 km/h 85 % 0 mm 11 W/m2
17:28 12.7 °C 10.1 °C 1004.3 hPa SW 8 km/h 14.5 km/h 84 % 0 mm 5 W/m2
17:34 12.7 °C 10.2 °C 1004.3 hPa SW 9.7 km/h 22.5 km/h 85 % 0 mm 0 W/m2
17:39 12.6 °C 10.2 °C 1004.3 hPa SW 9.7 km/h 22.5 km/h 85 % 0 mm 0 W/m2
17:44 12.5 °C 9.9 °C 1004.3 hPa SW 12.9 km/h 30.6 km/h 84 % 0 mm 0 W/m2
17:49 12.4 °C 9.6 °C 1004.3 hPa WSW 17.7 km/h 37 km/h 83 % 0 mm 0 W/m2
17:54 12.3 °C 9.5 °C 1004.6 hPa WSW 19.3 km/h 37 km/h 83 % 0 mm 0 W/m2
17:59 12.2 °C 9.4 °C 1004.6 hPa WSW 17.7 km/h 30.6 km/h 83 % 0 mm 0 W/m2
18:04 12.1 °C 9.3 °C 1004.6 hPa WSW 12.9 km/h 30.6 km/h 83 % 0 mm 0 W/m2
18:09 12.1 °C 9.3 °C 1004.6 hPa WSW 12.9 km/h 25.7 km/h 83 % 0 mm 0 W/m2
18:14 11.9 °C 8.9 °C 1004.6 hPa SW 14.5 km/h 29 km/h 82 % 0 mm 0 W/m2
18:19 11.9 °C 8.7 °C 1004.6 hPa SW 12.9 km/h 29 km/h 81 % 0 mm 0 W/m2
18:24 11.8 °C 8.7 °C 1005 hPa SW 12.9 km/h 22.5 km/h 81 % 0 mm 0 W/m2
18:29 11.7 °C 8.4 °C 1005 hPa SW 9.7 km/h 20.9 km/h 80 % 0 mm 0 W/m2
18:34 11.7 °C 8.2 °C 1004.6 hPa SW 8 km/h 17.7 km/h 79 % 0 mm 0 W/m2
18:39 11.7 °C 8.2 °C 1005 hPa SW 6.4 km/h 16.1 km/h 79 % 0 mm 0 W/m2
18:44 11.6 °C 8.1 °C 1004.6 hPa SW 4.8 km/h 11.3 km/h 79 % 0 mm 0 W/m2
18:49 11.6 °C 8.1 °C 1004.6 hPa SSW 3.2 km/h 12.9 km/h 79 % 0 mm 0 W/m2
18:54 11.6 °C 8.1 °C 1004.6 hPa SSW 4.8 km/h 12.9 km/h 79 % 0 mm 0 W/m2
18:59 11.5 °C 8 °C 1004.6 hPa SSW 8 km/h 20.9 km/h 79 % 0 mm 0 W/m2
19:04 11.4 °C 8.1 °C 1004.6 hPa South 8 km/h 20.9 km/h 80 % 0 mm 0 W/m2
19:09 11.4 °C 8.1 °C 1004.6 hPa South 6.4 km/h 16.1 km/h 80 % 0 mm 0 W/m2
19:15 11.3 °C 8.2 °C 1004.6 hPa South 4.8 km/h 16.1 km/h 81 % 0 mm 0 W/m2
19:20 11.2 °C 8.1 °C 1004.6 hPa South 4.8 km/h 11.3 km/h 81 % 0 mm 0 W/m2
19:25 11.2 °C 8.1 °C 1004.3 hPa SSW 4.8 km/h 11.3 km/h 81 % 0 mm 0 W/m2
19:26 11.1 °C 7.9 °C 1004.3 hPa SSW 4.8 km/h 11.3 km/h 81 % 0 mm 0 W/m2
19:32 11.1 °C 8.2 °C 1004.3 hPa SW 6.4 km/h 14.5 km/h 82 % 0 mm 0 W/m2
19:37 11 °C 8.1 °C 1004.3 hPa SW 9.7 km/h 14.5 km/h 82 % 0 mm 0 W/m2
19:42 10.9 °C 7.9 °C 1004.3 hPa SSW 9.7 km/h 17.7 km/h 82 % 0 mm 0 W/m2
19:47 10.9 °C 7.9 °C 1004.3 hPa SSW 9.7 km/h 22.5 km/h 82 % 0 mm 0 W/m2
19:52 10.9 °C 7.9 °C 1004.3 hPa SSW 11.3 km/h 22.5 km/h 82 % 0 mm 0 W/m2
19:57 10.9 °C 7.9 °C 1003.9 hPa SW 6.4 km/h 19.3 km/h 82 % 0 mm 0 W/m2
20:02 10.9 °C 7.8 °C 1003.9 hPa SSW 3.2 km/h 12.9 km/h 81 % 0 mm 0 W/m2
20:07 11 °C 7.9 °C 1004.3 hPa South 4.8 km/h 12.9 km/h 81 % 0 mm 0 W/m2
20:12 11 °C 7.9 °C 1003.9 hPa SSE 6.4 km/h 12.9 km/h 81 % 0 mm 0 W/m2
20:17 11 °C 7.9 °C 1003.9 hPa SSE 6.4 km/h 14.5 km/h 81 % 0 mm 0 W/m2
20:22 10.9 °C 7.8 °C 1003.9 hPa SSE 8 km/h 14.5 km/h 81 % 0 mm 0 W/m2
20:27 10.9 °C 7.9 °C 1003.9 hPa SSE 6.4 km/h 14.5 km/h 82 % 0 mm 0 W/m2
20:32 10.9 °C 7.9 °C 1003.6 hPa SE 6.4 km/h 14.5 km/h 82 % 0 mm 0 W/m2
20:37 10.8 °C 7.7 °C 1003.6 hPa SE 6.4 km/h 14.5 km/h 81 % 0 mm 0 W/m2
20:42 10.8 °C 7.7 °C 1003.6 hPa SE 6.4 km/h 16.1 km/h 81 % 0 mm 0 W/m2
20:43 10.8 °C 7.7 °C 1003.6 hPa SE 6.4 km/h 16.1 km/h 81 % 0 mm 0 W/m2
20:48 10.8 °C 7.8 °C 1003.3 hPa SE 8 km/h 16.1 km/h 82 % 0 mm 0 W/m2
20:53 10.7 °C 7.8 °C 1003.6 hPa SE 6.4 km/h 14.5 km/h 82 % 0 mm 0 W/m2
20:58 10.7 °C 7.8 °C 1003.3 hPa SE 6.4 km/h 14.5 km/h 82 % 0 mm 0 W/m2
21:03 10.7 °C 7.9 °C 1003.3 hPa SE 6.4 km/h 12.9 km/h 83 % 0 mm 0 W/m2
21:08 10.7 °C 7.9 °C 1003.3 hPa SE 6.4 km/h 11.3 km/h 83 % 0 mm 0 W/m2
21:13 10.6 °C 7.8 °C 1002.9 hPa SE 6.4 km/h 12.9 km/h 83 % 0 mm 0 W/m2
21:18 10.6 °C 8 °C 1002.9 hPa SE 6.4 km/h 12.9 km/h 84 % 0 mm 0 W/m2
21:23 10.6 °C 8 °C 1002.9 hPa SE 3.2 km/h 9.7 km/h 84 % 0 mm 0 W/m2
21:28 10.6 °C 8 °C 1002.9 hPa SSE 6.4 km/h 17.7 km/h 84 % 0 mm 0 W/m2
21:33 10.6 °C 8 °C 1002.6 hPa SSE 8 km/h 17.7 km/h 84 % 0 mm 0 W/m2
21:38 10.6 °C 8 °C 1002.6 hPa SSE 8 km/h 14.5 km/h 84 % 0 mm 0 W/m2
21:43 10.6 °C 8 °C 1002.3 hPa SE 9.7 km/h 17.7 km/h 84 % 0 mm 0 W/m2
21:48 10.6 °C 8 °C 1002.6 hPa SE 9.7 km/h 17.7 km/h 84 % 0 mm 0 W/m2
21:53 10.5 °C 7.9 °C 1002.3 hPa SE 8 km/h 12.9 km/h 84 % 0 mm 0 W/m2
21:58 10.5 °C 7.9 °C 1002.3 hPa SE 8 km/h 16.1 km/h 84 % 0 mm 0 W/m2
22:03 10.5 °C 8.1 °C 1002.6 hPa SE 8 km/h 16.1 km/h 85 % 0 mm 0 W/m2
22:08 10.6 °C 8.2 °C 1002.3 hPa SE 9.7 km/h 19.3 km/h 85 % 0 mm 0 W/m2
22:14 10.5 °C 8.3 °C 1002.3 hPa SSE 12.9 km/h 24.1 km/h 86 % 0.25 mm 0 W/m2
22:19 10.4 °C 8.2 °C 1002.3 hPa SSE 12.9 km/h 24.1 km/h 86 % 0.25 mm 0 W/m2
22:24 10.3 °C 8.2 °C 1002.3 hPa SE 9.7 km/h 17.7 km/h 87 % 0.25 mm 0 W/m2
22:29 10.3 °C 8.2 °C 1001.9 hPa SE 6.4 km/h 14.5 km/h 87 % 0.25 mm 0 W/m2
22:34 10.2 °C 8.3 °C 1001.9 hPa SSE 4.8 km/h 14.5 km/h 88 % 0.25 mm 0 W/m2
22:39 10.2 °C 8.3 °C 1001.6 hPa SSE 6.4 km/h 19.3 km/h 88 % 0.25 mm 0 W/m2
22:44 10.2 °C 8.3 °C 1001.6 hPa SSE 9.7 km/h 19.3 km/h 88 % 0.25 mm 0 W/m2
22:49 10.3 °C 8.4 °C 1001.6 hPa SSE 9.7 km/h 19.3 km/h 88 % 0.25 mm 0 W/m2
22:54 10.3 °C 8.4 °C 1001.2 hPa SSE 11.3 km/h 19.3 km/h 88 % 0.25 mm 0 W/m2
22:59 10.3 °C 8.6 °C 1001.2 hPa SSE 11.3 km/h 19.3 km/h 89 % 0.25 mm 0 W/m2
23:04 10.3 °C 8.6 °C 1001.2 hPa SSE 11.3 km/h 24.1 km/h 89 % 0.25 mm 0 W/m2
23:09 10.3 °C 8.6 °C 1001.2 hPa SSE 11.3 km/h 24.1 km/h 89 % 0 mm 0 W/m2
23:14 10.3 °C 8.6 °C 1001.2 hPa SSE 11.3 km/h 20.9 km/h 89 % 0 mm 0 W/m2
23:19 10.3 °C 8.6 °C 1000.9 hPa SSE 9.7 km/h 20.9 km/h 89 % 0 mm 0 W/m2
23:24 10.3 °C 8.6 °C 1000.9 hPa SSE 8 km/h 16.1 km/h 89 % 0 mm 0 W/m2
23:29 10.3 °C 8.7 °C 1000.6 hPa SE 9.7 km/h 16.1 km/h 90 % 0 mm 0 W/m2
23:34 10.4 °C 8.8 °C 1000.6 hPa SE 12.9 km/h 20.9 km/h 90 % 0 mm 0 W/m2
23:39 10.4 °C 8.8 °C 1000.6 hPa SSE 12.9 km/h 20.9 km/h 90 % 0 mm 0 W/m2
23:44 10.4 °C 9 °C 1000.6 hPa SSE 12.9 km/h 24.1 km/h 91 % 0 mm 0 W/m2
23:49 10.5 °C 9.1 °C 1000.6 hPa SSE 12.9 km/h 24.1 km/h 91 % 0 mm 0 W/m2
23:54 10.5 °C 9.1 °C 1000.2 hPa SSE 9.7 km/h 19.3 km/h 91 % 0 mm 0 W/m2
23:59 10.5 °C 9.3 °C 1000.2 hPa SSE 8 km/h 17.7 km/h 92 % 0 mm 0 W/m2
Delerius-Weather
Compliments of Weather Underground - 2.25 mb

Data updates at regular intervals.